sensor_id;sensor_type;location;lat;lon;timestamp;noise_LAeq;noise_LA_min;noise_LA_max;noise_LA01;noise_LA95
46393;Laerm;32099;53.588;10.176;2023-08-17T00:00:38;36.26;32.99;42.73;;
46393;Laerm;32099;53.588;10.176;2023-08-17T00:03:03;35.13;32.37;40.05;;
46393;Laerm;32099;53.588;10.176;2023-08-17T00:05:29;35.69;32.58;42.30;;
46393;Laerm;32099;53.588;10.176;2023-08-17T00:07:55;34.50;32.12;46.44;;
46393;Laerm;32099;53.588;10.176;2023-08-17T00:10:20;34.63;31.29;39.67;;
46393;Laerm;32099;53.588;10.176;2023-08-17T00:12:45;35.45;32.66;41.93;;
46393;Laerm;32099;53.588;10.176;2023-08-17T00:15:11;33.82;31.99;36.62;;
46393;Laerm;32099;53.588;10.176;2023-08-17T00:17:36;33.13;31.39;40.71;;
46393;Laerm;32099;53.588;10.176;2023-08-17T00:20:01;33.51;31.57;39.38;;
46393;Laerm;32099;53.588;10.176;2023-08-17T00:22:30;33.71;31.44;40.71;;
46393;Laerm;32099;53.588;10.176;2023-08-17T00:24:55;34.40;31.44;40.55;;
46393;Laerm;32099;53.588;10.176;2023-08-17T00:27:20;33.05;31.41;35.41;;
46393;Laerm;32099;53.588;10.176;2023-08-17T00:29:45;34.63;31.64;45.99;;
46393;Laerm;32099;53.588;10.176;2023-08-17T00:32:11;33.83;31.50;47.58;;
46393;Laerm;32099;53.588;10.176;2023-08-17T00:34:36;33.24;31.19;41.54;;
46393;Laerm;32099;53.588;10.176;2023-08-17T00:37:01;34.18;31.50;42.80;;
46393;Laerm;32099;53.588;10.176;2023-08-17T00:39:26;34.41;32.03;56.02;;
46393;Laerm;32099;53.588;10.176;2023-08-17T00:41:52;34.40;32.23;38.66;;
46393;Laerm;32099;53.588;10.176;2023-08-17T00:44:17;34.91;32.23;41.25;;
46393;Laerm;32099;53.588;10.176;2023-08-17T00:46:43;35.71;32.90;44.66;;
46393;Laerm;32099;53.588;10.176;2023-08-17T00:49:09;45.88;33.70;64.66;;
46393;Laerm;32099;53.588;10.176;2023-08-17T00:51:35;44.79;33.77;62.85;;
46393;Laerm;32099;53.588;10.176;2023-08-17T00:54:01;35.94;33.05;44.46;;
46393;Laerm;32099;53.588;10.176;2023-08-17T00:56:27;35.15;32.73;38.55;;
46393;Laerm;32099;53.588;10.176;2023-08-17T00:58:53;34.31;32.16;41.94;;
46393;Laerm;32099;53.588;10.176;2023-08-17T01:01:19;35.15;32.60;47.28;;
46393;Laerm;32099;53.588;10.176;2023-08-17T01:03:45;34.06;31.85;38.03;;
46393;Laerm;32099;53.588;10.176;2023-08-17T01:06:10;33.99;31.93;47.12;;
46393;Laerm;32099;53.588;10.176;2023-08-17T01:08:36;35.11;32.25;39.73;;
46393;Laerm;32099;53.588;10.176;2023-08-17T01:13:50;34.73;32.32;40.81;;
46393;Laerm;32099;53.588;10.176;2023-08-17T01:16:27;34.34;32.11;39.47;;
46393;Laerm;32099;53.588;10.176;2023-08-17T01:18:55;35.82;32.84;40.67;;
46393;Laerm;32099;53.588;10.176;2023-08-17T01:21:24;36.23;33.62;48.21;;
46393;Laerm;32099;53.588;10.176;2023-08-17T01:23:57;49.93;33.54;70.89;;
46393;Laerm;32099;53.588;10.176;2023-08-17T01:26:24;37.11;33.80;43.00;;
46393;Laerm;32099;53.588;10.176;2023-08-17T01:28:49;35.72;32.65;44.82;;
46393;Laerm;32099;53.588;10.176;2023-08-17T01:31:21;42.09;32.32;59.45;;
46393;Laerm;32099;53.588;10.176;2023-08-17T01:34:09;36.23;32.80;51.25;;
46393;Laerm;32099;53.588;10.176;2023-08-17T01:36:42;34.98;31.97;40.18;;
46393;Laerm;32099;53.588;10.176;2023-08-17T01:39:10;35.00;32.26;42.19;;
46393;Laerm;32099;53.588;10.176;2023-08-17T01:41:38;34.32;31.84;38.09;;
46393;Laerm;32099;53.588;10.176;2023-08-17T01:44:04;35.19;32.45;39.46;;
46393;Laerm;32099;53.588;10.176;2023-08-17T01:46:32;34.83;32.38;41.65;;
46393;Laerm;32099;53.588;10.176;2023-08-17T01:48:58;35.06;32.24;44.54;;
46393;Laerm;32099;53.588;10.176;2023-08-17T01:51:24;34.52;32.29;38.51;;
46393;Laerm;32099;53.588;10.176;2023-08-17T01:53:50;35.11;32.50;44.63;;
46393;Laerm;32099;53.588;10.176;2023-08-17T01:56:16;35.02;32.06;38.55;;
46393;Laerm;32099;53.588;10.176;2023-08-17T01:58:41;34.93;32.15;44.22;;
46393;Laerm;32099;53.588;10.176;2023-08-17T02:01:06;34.82;32.40;43.19;;
46393;Laerm;32099;53.588;10.176;2023-08-17T02:03:32;34.82;32.31;40.63;;
46393;Laerm;32099;53.588;10.176;2023-08-17T02:05:58;34.76;32.32;39.42;;
46393;Laerm;32099;53.588;10.176;2023-08-17T02:08:23;34.49;32.29;42.33;;
46393;Laerm;32099;53.588;10.176;2023-08-17T02:10:48;34.69;32.36;41.10;;
46393;Laerm;32099;53.588;10.176;2023-08-17T02:13:15;35.51;32.98;48.70;;
46393;Laerm;32099;53.588;10.176;2023-08-17T02:15:40;35.25;32.40;44.44;;
46393;Laerm;32099;53.588;10.176;2023-08-17T02:18:06;37.16;33.12;55.39;;
46393;Laerm;32099;53.588;10.176;2023-08-17T02:20:31;35.20;32.81;40.98;;
46393;Laerm;32099;53.588;10.176;2023-08-17T02:22:56;35.03;32.76;39.31;;
46393;Laerm;32099;53.588;10.176;2023-08-17T02:25:22;34.38;32.37;38.50;;
46393;Laerm;32099;53.588;10.176;2023-08-17T02:27:47;34.28;31.84;43.24;;
46393;Laerm;32099;53.588;10.176;2023-08-17T02:30:13;36.08;32.75;43.96;;
46393;Laerm;32099;53.588;10.176;2023-08-17T02:32:38;35.00;32.42;40.69;;
46393;Laerm;32099;53.588;10.176;2023-08-17T02:35:04;35.10;33.09;42.06;;
46393;Laerm;32099;53.588;10.176;2023-08-17T02:37:29;36.65;33.59;47.95;;
46393;Laerm;32099;53.588;10.176;2023-08-17T02:39:54;37.15;34.46;45.59;;
46393;Laerm;32099;53.588;10.176;2023-08-17T02:42:20;36.33;33.84;43.04;;
46393;Laerm;32099;53.588;10.176;2023-08-17T02:44:45;35.71;33.33;40.55;;
46393;Laerm;32099;53.588;10.176;2023-08-17T02:47:11;37.52;34.32;47.44;;
46393;Laerm;32099;53.588;10.176;2023-08-17T02:49:36;37.26;33.89;47.56;;
46393;Laerm;32099;53.588;10.176;2023-08-17T02:52:01;36.23;33.77;39.19;;
46393;Laerm;32099;53.588;10.176;2023-08-17T02:54:26;36.72;33.49;40.47;;
46393;Laerm;32099;53.588;10.176;2023-08-17T02:56:52;36.65;33.74;47.01;;
46393;Laerm;32099;53.588;10.176;2023-08-17T02:59:17;49.23;34.32;65.63;;
46393;Laerm;32099;53.588;10.176;2023-08-17T03:01:44;38.40;34.14;59.81;;
46393;Laerm;32099;53.588;10.176;2023-08-17T03:04:09;48.41;34.33;69.73;;
46393;Laerm;32099;53.588;10.176;2023-08-17T03:06:34;37.54;34.73;49.45;;
46393;Laerm;32099;53.588;10.176;2023-08-17T03:09:00;37.55;34.70;47.67;;
46393;Laerm;32099;53.588;10.176;2023-08-17T03:11:25;45.63;33.75;62.96;;
46393;Laerm;32099;53.588;10.176;2023-08-17T03:13:50;55.39;35.07;76.48;;
46393;Laerm;32099;53.588;10.176;2023-08-17T03:16:16;37.31;34.05;47.49;;
46393;Laerm;32099;53.588;10.176;2023-08-17T03:18:41;37.72;34.51;44.73;;
46393;Laerm;32099;53.588;10.176;2023-08-17T03:21:06;37.39;34.73;44.34;;
46393;Laerm;32099;53.588;10.176;2023-08-17T03:23:32;37.86;34.76;49.52;;
46393;Laerm;32099;53.588;10.176;2023-08-17T03:25:58;38.11;35.17;53.60;;
46393;Laerm;32099;53.588;10.176;2023-08-17T03:28:23;48.19;34.84;70.40;;
46393;Laerm;32099;53.588;10.176;2023-08-17T03:30:50;38.22;35.30;43.47;;
46393;Laerm;32099;53.588;10.176;2023-08-17T03:33:15;39.16;36.18;45.11;;
46393;Laerm;32099;53.588;10.176;2023-08-17T03:35:41;38.46;35.68;44.22;;
46393;Laerm;32099;53.588;10.176;2023-08-17T03:38:06;39.04;35.97;49.10;;
46393;Laerm;32099;53.588;10.176;2023-08-17T03:40:31;37.89;35.33;42.43;;
46393;Laerm;32099;53.588;10.176;2023-08-17T03:42:56;39.83;36.15;64.94;;
46393;Laerm;32099;53.588;10.176;2023-08-17T03:45:22;38.22;35.69;43.56;;
46393;Laerm;32099;53.588;10.176;2023-08-17T03:47:47;38.44;35.37;45.96;;
46393;Laerm;32099;53.588;10.176;2023-08-17T03:50:12;45.58;35.28;65.58;;
46393;Laerm;32099;53.588;10.176;2023-08-17T03:52:37;38.85;36.18;43.44;;
46393;Laerm;32099;53.588;10.176;2023-08-17T03:55:03;39.75;36.82;44.31;;
46393;Laerm;32099;53.588;10.176;2023-08-17T03:57:31;40.11;35.74;50.25;;
46393;Laerm;32099;53.588;10.176;2023-08-17T03:59:57;40.03;37.19;44.93;;
46393;Laerm;32099;53.588;10.176;2023-08-17T04:02:22;46.97;38.11;67.78;;
46393;Laerm;32099;53.588;10.176;2023-08-17T04:04:47;40.73;37.85;48.19;;
46393;Laerm;32099;53.588;10.176;2023-08-17T04:07:20;51.46;37.57;69.94;;
46393;Laerm;32099;53.588;10.176;2023-08-17T04:09:45;40.62;37.32;47.73;;
46393;Laerm;32099;53.588;10.176;2023-08-17T04:12:11;40.52;37.95;43.41;;
46393;Laerm;32099;53.588;10.176;2023-08-17T04:14:36;40.98;38.55;45.68;;
46393;Laerm;32099;53.588;10.176;2023-08-17T04:17:01;42.16;38.64;50.94;;
46393;Laerm;32099;53.588;10.176;2023-08-17T04:19:26;41.20;37.64;50.22;;
46393;Laerm;32099;53.588;10.176;2023-08-17T04:21:52;47.22;38.20;67.78;;
46393;Laerm;32099;53.588;10.176;2023-08-17T04:24:17;49.08;38.27;69.17;;
46393;Laerm;32099;53.588;10.176;2023-08-17T04:26:43;46.17;38.56;66.56;;
46393;Laerm;32099;53.588;10.176;2023-08-17T04:29:08;42.63;38.01;54.47;;
46393;Laerm;32099;53.588;10.176;2023-08-17T04:31:33;42.03;38.33;49.44;;
46393;Laerm;32099;53.588;10.176;2023-08-17T04:33:58;48.50;38.85;69.26;;
46393;Laerm;32099;53.588;10.176;2023-08-17T04:36:24;47.86;39.04;64.21;;
46393;Laerm;32099;53.588;10.176;2023-08-17T04:38:49;50.55;38.65;69.20;;
46393;Laerm;32099;53.588;10.176;2023-08-17T04:41:14;52.27;39.03;71.41;;
46393;Laerm;32099;53.588;10.176;2023-08-17T04:43:40;52.93;38.42;71.33;;
46393;Laerm;32099;53.588;10.176;2023-08-17T04:46:05;49.22;38.58;70.40;;
46393;Laerm;32099;53.588;10.176;2023-08-17T04:48:31;50.85;37.87;69.55;;
46393;Laerm;32099;53.588;10.176;2023-08-17T04:50:56;49.81;38.30;70.28;;
46393;Laerm;32099;53.588;10.176;2023-08-17T04:53:21;46.16;37.58;64.77;;
46393;Laerm;32099;53.588;10.176;2023-08-17T04:55:46;48.29;37.40;69.02;;
46393;Laerm;32099;53.588;10.176;2023-08-17T04:58:12;50.61;37.38;69.76;;
46393;Laerm;32099;53.588;10.176;2023-08-17T05:00:37;52.44;37.71;71.60;;
46393;Laerm;32099;53.588;10.176;2023-08-17T05:03:02;47.49;37.48;67.29;;
46393;Laerm;32099;53.588;10.176;2023-08-17T05:05:28;46.15;37.67;62.81;;
46393;Laerm;32099;53.588;10.176;2023-08-17T05:07:53;64.56;37.15;84.04;;
46393;Laerm;32099;53.588;10.176;2023-08-17T05:10:19;56.30;36.87;80.10;;
46393;Laerm;32099;53.588;10.176;2023-08-17T05:12:44;39.85;36.37;46.11;;
46393;Laerm;32099;53.588;10.176;2023-08-17T05:15:10;49.46;37.33;68.55;;
46393;Laerm;32099;53.588;10.176;2023-08-17T05:17:35;54.94;36.94;72.05;;
46393;Laerm;32099;53.588;10.176;2023-08-17T05:20:00;51.87;36.80;71.20;;
46393;Laerm;32099;53.588;10.176;2023-08-17T05:22:27;41.16;36.25;51.87;;
46393;Laerm;32099;53.588;10.176;2023-08-17T05:24:52;51.87;37.75;71.23;;
46393;Laerm;32099;53.588;10.176;2023-08-17T05:27:17;43.74;40.24;53.93;;
46393;Laerm;32099;53.588;10.176;2023-08-17T05:29:43;49.13;42.36;65.99;;
46393;Laerm;32099;53.588;10.176;2023-08-17T05:32:08;54.83;45.43;74.72;;
46393;Laerm;32099;53.588;10.176;2023-08-17T05:34:33;52.51;49.23;67.42;;
46393;Laerm;32099;53.588;10.176;2023-08-17T05:36:58;53.34;50.45;63.47;;
46393;Laerm;32099;53.588;10.176;2023-08-17T05:39:24;57.73;51.18;72.21;;
46393;Laerm;32099;53.588;10.176;2023-08-17T05:41:49;56.17;51.96;70.42;;
46393;Laerm;32099;53.588;10.176;2023-08-17T05:44:14;58.87;52.41;77.20;;
46393;Laerm;32099;53.588;10.176;2023-08-17T05:46:40;57.00;53.50;68.43;;
46393;Laerm;32099;53.588;10.176;2023-08-17T05:49:06;58.57;54.15;79.32;;
46393;Laerm;32099;53.588;10.176;2023-08-17T05:51:31;59.88;54.66;72.16;;
46393;Laerm;32099;53.588;10.176;2023-08-17T05:53:56;59.79;54.54;71.85;;
46393;Laerm;32099;53.588;10.176;2023-08-17T05:56:21;58.40;54.18;69.74;;
46393;Laerm;32099;53.588;10.176;2023-08-17T05:58:47;58.42;52.04;73.40;;
46393;Laerm;32099;53.588;10.176;2023-08-17T06:01:14;54.70;50.71;71.13;;
46393;Laerm;32099;53.588;10.176;2023-08-17T06:03:39;57.19;52.93;70.44;;
46393;Laerm;32099;53.588;10.176;2023-08-17T06:06:05;59.06;52.15;71.53;;
46393;Laerm;32099;53.588;10.176;2023-08-17T06:08:30;56.38;52.98;66.40;;
46393;Laerm;32099;53.588;10.176;2023-08-17T06:10:56;59.76;54.73;73.58;;
46393;Laerm;32099;53.588;10.176;2023-08-17T06:13:21;58.30;52.56;72.76;;
46393;Laerm;32099;53.588;10.176;2023-08-17T06:15:47;57.13;51.92;74.35;;
46393;Laerm;32099;53.588;10.176;2023-08-17T06:18:12;57.87;52.67;72.33;;
46393;Laerm;32099;53.588;10.176;2023-08-17T06:20:37;55.88;51.11;68.20;;
46393;Laerm;32099;53.588;10.176;2023-08-17T06:23:03;55.75;51.30;67.83;;
46393;Laerm;32099;53.588;10.176;2023-08-17T06:25:29;57.84;52.18;73.67;;
46393;Laerm;32099;53.588;10.176;2023-08-17T06:27:54;59.01;51.70;75.32;;
46393;Laerm;32099;53.588;10.176;2023-08-17T06:30:19;57.07;50.85;72.70;;
46393;Laerm;32099;53.588;10.176;2023-08-17T06:32:44;56.69;50.69;69.06;;
46393;Laerm;32099;53.588;10.176;2023-08-17T06:35:10;57.50;52.98;69.82;;
46393;Laerm;32099;53.588;10.176;2023-08-17T06:37:35;57.50;52.53;70.58;;
46393;Laerm;32099;53.588;10.176;2023-08-17T06:40:03;62.17;52.31;75.80;;
46393;Laerm;32099;53.588;10.176;2023-08-17T06:42:28;56.21;52.85;65.49;;
46393;Laerm;32099;53.588;10.176;2023-08-17T06:44:53;56.59;53.02;66.90;;
46393;Laerm;32099;53.588;10.176;2023-08-17T06:47:18;60.02;52.55;74.96;;
46393;Laerm;32099;53.588;10.176;2023-08-17T06:49:44;57.70;51.67;73.91;;
46393;Laerm;32099;53.588;10.176;2023-08-17T06:52:09;57.37;50.28;76.37;;
46393;Laerm;32099;53.588;10.176;2023-08-17T06:54:34;51.85;48.23;61.81;;
46393;Laerm;32099;53.588;10.176;2023-08-17T06:57:00;51.35;47.96;63.24;;
46393;Laerm;32099;53.588;10.176;2023-08-17T06:59:25;52.01;47.90;62.58;;
46393;Laerm;32099;53.588;10.176;2023-08-17T07:01:51;59.69;47.78;72.85;;
46393;Laerm;32099;53.588;10.176;2023-08-17T07:04:16;52.58;47.95;66.96;;
46393;Laerm;32099;53.588;10.176;2023-08-17T07:06:41;54.18;47.60;64.13;;
46393;Laerm;32099;53.588;10.176;2023-08-17T07:09:08;58.01;47.47;83.17;;
46393;Laerm;32099;53.588;10.176;2023-08-17T07:11:33;54.04;49.64;67.69;;
46393;Laerm;32099;53.588;10.176;2023-08-17T07:13:59;59.80;50.06;77.26;;
46393;Laerm;32099;53.588;10.176;2023-08-17T07:16:24;55.62;47.71;72.14;;
46393;Laerm;32099;53.588;10.176;2023-08-17T07:18:49;49.63;45.65;57.75;;
46393;Laerm;32099;53.588;10.176;2023-08-17T07:21:14;60.74;44.30;79.87;;
46393;Laerm;32099;53.588;10.176;2023-08-17T07:23:44;46.09;42.71;57.32;;
46393;Laerm;32099;53.588;10.176;2023-08-17T07:26:10;52.96;43.14;69.33;;
46393;Laerm;32099;53.588;10.176;2023-08-17T07:28:35;47.17;42.68;58.18;;
46393;Laerm;32099;53.588;10.176;2023-08-17T07:31:00;49.58;43.72;58.74;;
46393;Laerm;32099;53.588;10.176;2023-08-17T07:33:26;45.93;42.60;55.94;;
46393;Laerm;32099;53.588;10.176;2023-08-17T07:35:51;52.89;42.00;64.85;;
46393;Laerm;32099;53.588;10.176;2023-08-17T07:38:18;51.44;43.14;65.72;;
46393;Laerm;32099;53.588;10.176;2023-08-17T07:40:43;52.47;43.59;66.81;;
46393;Laerm;32099;53.588;10.176;2023-08-17T07:43:09;56.43;43.14;74.89;;
46393;Laerm;32099;53.588;10.176;2023-08-17T07:45:34;54.51;42.32;73.03;;
46393;Laerm;32099;53.588;10.176;2023-08-17T07:47:59;55.41;42.36;72.12;;
46393;Laerm;32099;53.588;10.176;2023-08-17T07:50:24;51.61;43.41;70.86;;
46393;Laerm;32099;53.588;10.176;2023-08-17T07:52:50;50.83;43.26;68.01;;
46393;Laerm;32099;53.588;10.176;2023-08-17T07:55:15;55.87;42.59;70.04;;
46393;Laerm;32099;53.588;10.176;2023-08-17T07:57:40;52.62;43.65;74.70;;
46393;Laerm;32099;53.588;10.176;2023-08-17T08:00:06;52.94;42.65;70.49;;
46393;Laerm;32099;53.588;10.176;2023-08-17T08:02:31;51.09;43.00;64.95;;
46393;Laerm;32099;53.588;10.176;2023-08-17T08:04:57;49.95;42.11;67.04;;
46393;Laerm;32099;53.588;10.176;2023-08-17T08:07:22;53.49;42.00;73.03;;
46393;Laerm;32099;53.588;10.176;2023-08-17T08:09:47;59.05;41.53;75.29;;
46393;Laerm;32099;53.588;10.176;2023-08-17T08:12:12;44.23;40.67;60.28;;
46393;Laerm;32099;53.588;10.176;2023-08-17T08:14:38;51.35;40.53;68.83;;
46393;Laerm;32099;53.588;10.176;2023-08-17T08:17:03;53.85;41.10;71.39;;
46393;Laerm;32099;53.588;10.176;2023-08-17T08:19:28;56.23;41.81;83.82;;
46393;Laerm;32099;53.588;10.176;2023-08-17T08:21:53;46.66;41.53;69.33;;
46393;Laerm;32099;53.588;10.176;2023-08-17T08:24:19;46.21;41.40;70.24;;
46393;Laerm;32099;53.588;10.176;2023-08-17T08:26:44;49.62;41.73;79.68;;
46393;Laerm;32099;53.588;10.176;2023-08-17T08:29:09;59.67;42.92;83.28;;
46393;Laerm;32099;53.588;10.176;2023-08-17T08:31:35;45.62;42.61;54.23;;
46393;Laerm;32099;53.588;10.176;2023-08-17T08:34:00;52.43;41.62;72.07;;
46393;Laerm;32099;53.588;10.176;2023-08-17T08:36:25;51.89;40.89;70.01;;
46393;Laerm;32099;53.588;10.176;2023-08-17T08:38:51;48.36;41.16;65.02;;
46393;Laerm;32099;53.588;10.176;2023-08-17T08:41:16;49.09;40.55;69.21;;
46393;Laerm;32099;53.588;10.176;2023-08-17T08:43:44;54.98;40.02;74.16;;
46393;Laerm;32099;53.588;10.176;2023-08-17T08:46:11;45.67;41.16;54.44;;
46393;Laerm;32099;53.588;10.176;2023-08-17T08:48:38;46.58;42.97;56.98;;
46393;Laerm;32099;53.588;10.176;2023-08-17T08:51:07;54.15;43.23;70.22;;
46393;Laerm;32099;53.588;10.176;2023-08-17T08:53:44;46.38;43.39;54.91;;
46393;Laerm;32099;53.588;10.176;2023-08-17T08:56:15;52.52;43.40;69.56;;
46393;Laerm;32099;53.588;10.176;2023-08-17T08:58:44;55.27;42.32;63.54;;
46393;Laerm;32099;53.588;10.176;2023-08-17T09:01:15;48.16;40.99;65.76;;
46393;Laerm;32099;53.588;10.176;2023-08-17T09:03:41;56.71;40.31;74.84;;
46393;Laerm;32099;53.588;10.176;2023-08-17T09:06:07;58.21;40.44;75.78;;
46393;Laerm;32099;53.588;10.176;2023-08-17T09:08:34;54.44;40.65;71.95;;
46393;Laerm;32099;53.588;10.176;2023-08-17T09:10:59;43.59;39.95;57.85;;
46393;Laerm;32099;53.588;10.176;2023-08-17T09:13:25;52.45;40.36;67.39;;
46393;Laerm;32099;53.588;10.176;2023-08-17T09:15:50;53.57;43.19;68.19;;
46393;Laerm;32099;53.588;10.176;2023-08-17T09:18:16;45.67;42.67;54.76;;
46393;Laerm;32099;53.588;10.176;2023-08-17T09:20:44;60.86;43.25;79.29;;
46393;Laerm;32099;53.588;10.176;2023-08-17T09:23:17;53.70;43.36;69.77;;
46393;Laerm;32099;53.588;10.176;2023-08-17T09:25:45;53.47;46.29;70.57;;
46393;Laerm;32099;53.588;10.176;2023-08-17T09:28:13;52.06;46.17;64.68;;
46393;Laerm;32099;53.588;10.176;2023-08-17T09:33:14;54.62;42.49;71.17;;
46393;Laerm;32099;53.588;10.176;2023-08-17T09:35:41;55.54;40.10;70.15;;
46393;Laerm;32099;53.588;10.176;2023-08-17T09:38:07;55.37;40.94;72.32;;
46393;Laerm;32099;53.588;10.176;2023-08-17T09:40:32;58.54;42.85;73.28;;
46393;Laerm;32099;53.588;10.176;2023-08-17T09:42:58;49.44;44.50;60.12;;
46393;Laerm;32099;53.588;10.176;2023-08-17T09:45:23;53.08;44.06;70.52;;
46393;Laerm;32099;53.588;10.176;2023-08-17T09:47:49;56.50;44.78;71.38;;
46393;Laerm;32099;53.588;10.176;2023-08-17T09:50:14;54.92;44.59;71.51;;
46393;Laerm;32099;53.588;10.176;2023-08-17T09:52:39;52.00;44.34;67.64;;
46393;Laerm;32099;53.588;10.176;2023-08-17T09:55:07;54.70;43.08;71.66;;
46393;Laerm;32099;53.588;10.176;2023-08-17T09:57:32;54.93;46.44;73.63;;
46393;Laerm;32099;53.588;10.176;2023-08-17T09:59:58;51.93;45.46;66.40;;
46393;Laerm;32099;53.588;10.176;2023-08-17T10:02:23;59.90;43.09;78.43;;
46393;Laerm;32099;53.588;10.176;2023-08-17T10:04:51;49.28;44.92;64.44;;
46393;Laerm;32099;53.588;10.176;2023-08-17T10:07:19;49.19;45.87;57.29;;
46393;Laerm;32099;53.588;10.176;2023-08-17T10:09:49;48.31;44.71;60.31;;
46393;Laerm;32099;53.588;10.176;2023-08-17T10:12:18;51.94;42.94;69.64;;
46393;Laerm;32099;53.588;10.176;2023-08-17T10:14:54;48.85;44.73;62.75;;
46393;Laerm;32099;53.588;10.176;2023-08-17T10:17:25;57.71;46.42;76.06;;
46393;Laerm;32099;53.588;10.176;2023-08-17T10:19:58;57.23;45.84;69.62;;
46393;Laerm;32099;53.588;10.176;2023-08-17T10:22:41;51.37;45.65;59.70;;
46393;Laerm;32099;53.588;10.176;2023-08-17T10:25:11;59.12;46.26;78.70;;
46393;Laerm;32099;53.588;10.176;2023-08-17T10:27:40;51.57;44.67;66.91;;
46393;Laerm;32099;53.588;10.176;2023-08-17T10:30:07;53.27;43.67;70.10;;
46393;Laerm;32099;53.588;10.176;2023-08-17T10:32:33;55.67;46.49;70.61;;
46393;Laerm;32099;53.588;10.176;2023-08-17T10:34:59;58.24;47.61;81.59;;
46393;Laerm;32099;53.588;10.176;2023-08-17T10:37:25;56.93;47.10;73.72;;
46393;Laerm;32099;53.588;10.176;2023-08-17T10:39:50;53.42;45.18;68.49;;
46393;Laerm;32099;53.588;10.176;2023-08-17T10:42:30;54.84;46.21;71.78;;
46393;Laerm;32099;53.588;10.176;2023-08-17T10:44:57;55.62;47.52;72.29;;
46393;Laerm;32099;53.588;10.176;2023-08-17T10:47:27;55.62;50.63;71.43;;
46393;Laerm;32099;53.588;10.176;2023-08-17T10:50:04;57.22;51.99;72.57;;
46393;Laerm;32099;53.588;10.176;2023-08-17T10:52:34;58.30;52.24;71.96;;
46393;Laerm;32099;53.588;10.176;2023-08-17T10:55:02;58.55;52.43;72.02;;
46393;Laerm;32099;53.588;10.176;2023-08-17T10:57:32;56.88;50.66;70.85;;
46393;Laerm;32099;53.588;10.176;2023-08-17T11:00:18;55.40;49.11;71.05;;
46393;Laerm;32099;53.588;10.176;2023-08-17T11:02:56;56.52;50.84;69.07;;
46393;Laerm;32099;53.588;10.176;2023-08-17T11:08:19;51.21;46.01;64.57;;
46393;Laerm;32099;53.588;10.176;2023-08-17T11:11:05;54.17;44.36;71.78;;
46393;Laerm;32099;53.588;10.176;2023-08-17T11:13:32;49.63;45.72;60.51;;
46393;Laerm;32099;53.588;10.176;2023-08-17T11:15:59;48.97;45.74;60.89;;
46393;Laerm;32099;53.588;10.176;2023-08-17T11:18:24;47.19;44.15;57.80;;
46393;Laerm;32099;53.588;10.176;2023-08-17T11:20:50;54.12;43.23;71.16;;
46393;Laerm;32099;53.588;10.176;2023-08-17T11:23:15;47.15;42.67;56.49;;
46393;Laerm;32099;53.588;10.176;2023-08-17T11:25:41;55.05;40.91;71.62;;
46393;Laerm;32099;53.588;10.176;2023-08-17T11:28:07;56.89;41.03;76.63;;
46393;Laerm;32099;53.588;10.176;2023-08-17T11:30:37;57.46;41.30;74.53;;
46393;Laerm;32099;53.588;10.176;2023-08-17T11:33:04;55.36;39.70;74.11;;
46393;Laerm;32099;53.588;10.176;2023-08-17T11:35:30;59.01;40.82;77.80;;
46393;Laerm;32099;53.588;10.176;2023-08-17T11:37:55;47.18;41.44;59.85;;
46393;Laerm;32099;53.588;10.176;2023-08-17T11:40:21;58.98;41.13;75.08;;
46393;Laerm;32099;53.588;10.176;2023-08-17T11:42:46;49.19;43.34;56.87;;
46393;Laerm;32099;53.588;10.176;2023-08-17T11:45:12;57.69;42.26;75.97;;
46393;Laerm;32099;53.588;10.176;2023-08-17T11:47:41;52.26;40.83;69.50;;
46393;Laerm;32099;53.588;10.176;2023-08-17T11:50:11;52.37;40.06;71.25;;
46393;Laerm;32099;53.588;10.176;2023-08-17T11:52:37;53.99;41.46;69.23;;
46393;Laerm;32099;53.588;10.176;2023-08-17T11:55:06;52.58;40.75;66.66;;
46393;Laerm;32099;53.588;10.176;2023-08-17T11:57:33;44.33;39.17;63.71;;
46393;Laerm;32099;53.588;10.176;2023-08-17T11:59:59;42.09;38.44;58.23;;
46393;Laerm;32099;53.588;10.176;2023-08-17T12:02:28;52.21;37.88;71.26;;
46393;Laerm;32099;53.588;10.176;2023-08-17T12:04:55;50.99;37.95;69.38;;
46393;Laerm;32099;53.588;10.176;2023-08-17T12:07:21;56.90;38.51;74.55;;
46393;Laerm;32099;53.588;10.176;2023-08-17T12:09:48;52.06;37.38;69.91;;
46393;Laerm;32099;53.588;10.176;2023-08-17T12:12:17;55.08;38.77;71.96;;
46393;Laerm;32099;53.588;10.176;2023-08-17T12:14:43;43.25;39.58;54.11;;
46393;Laerm;32099;53.588;10.176;2023-08-17T12:17:19;43.15;39.07;57.95;;
46393;Laerm;32099;53.588;10.176;2023-08-17T12:19:48;56.94;40.12;72.66;;
46393;Laerm;32099;53.588;10.176;2023-08-17T12:22:14;55.65;39.19;71.81;;
46393;Laerm;32099;53.588;10.176;2023-08-17T12:24:39;48.86;38.76;64.96;;
46393;Laerm;32099;53.588;10.176;2023-08-17T12:27:05;54.57;38.99;73.66;;
46393;Laerm;32099;53.588;10.176;2023-08-17T12:29:30;51.49;39.10;67.06;;
46393;Laerm;32099;53.588;10.176;2023-08-17T12:32:01;52.22;39.33;68.80;;
46393;Laerm;32099;53.588;10.176;2023-08-17T12:34:27;58.78;39.03;75.37;;
46393;Laerm;32099;53.588;10.176;2023-08-17T12:36:52;56.68;38.94;71.12;;
46393;Laerm;32099;53.588;10.176;2023-08-17T12:39:17;52.23;37.72;79.62;;
46393;Laerm;32099;53.588;10.176;2023-08-17T12:41:43;44.20;38.96;68.23;;
46393;Laerm;32099;53.588;10.176;2023-08-17T12:44:09;43.11;39.77;56.10;;
46393;Laerm;32099;53.588;10.176;2023-08-17T12:46:38;53.56;41.07;71.93;;
46393;Laerm;32099;53.588;10.176;2023-08-17T12:49:04;46.92;42.13;59.35;;
46393;Laerm;32099;53.588;10.176;2023-08-17T12:51:29;46.28;42.23;56.46;;
46393;Laerm;32099;53.588;10.176;2023-08-17T12:53:54;49.32;42.97;63.22;;
46393;Laerm;32099;53.588;10.176;2023-08-17T12:56:19;58.78;47.15;77.32;;
46393;Laerm;32099;53.588;10.176;2023-08-17T12:58:45;54.69;48.16;70.75;;
46393;Laerm;32099;53.588;10.176;2023-08-17T13:01:10;53.68;46.13;70.96;;
46393;Laerm;32099;53.588;10.176;2023-08-17T13:03:35;59.13;44.26;74.52;;
46393;Laerm;32099;53.588;10.176;2023-08-17T13:06:01;49.03;44.15;62.50;;
46393;Laerm;32099;53.588;10.176;2023-08-17T13:08:26;51.39;43.81;66.94;;
46393;Laerm;32099;53.588;10.176;2023-08-17T13:10:51;49.09;45.34;56.07;;
46393;Laerm;32099;53.588;10.176;2023-08-17T13:13:16;47.94;44.13;57.97;;
46393;Laerm;32099;53.588;10.176;2023-08-17T13:15:42;55.51;46.17;73.32;;
46393;Laerm;32099;53.588;10.176;2023-08-17T13:18:07;58.99;44.56;77.02;;
46393;Laerm;32099;53.588;10.176;2023-08-17T13:20:33;51.37;45.42;63.56;;
46393;Laerm;32099;53.588;10.176;2023-08-17T13:22:58;56.05;45.18;72.43;;
46393;Laerm;32099;53.588;10.176;2023-08-17T13:25:23;57.07;41.46;74.79;;
46393;Laerm;32099;53.588;10.176;2023-08-17T13:27:48;55.58;41.22;73.70;;
46393;Laerm;32099;53.588;10.176;2023-08-17T13:30:14;47.09;39.13;61.10;;
46393;Laerm;32099;53.588;10.176;2023-08-17T13:32:39;46.86;38.28;57.15;;
46393;Laerm;32099;53.588;10.176;2023-08-17T13:35:05;53.13;39.22;72.81;;